Time;durP1;ratioP1;P1;durP2;ratioP2;P2;SDS_P1;SDS_P2;PMS_P1;PMS_P2;Temp;Humidity;BMP_temperature;BMP_pressure;BME280_temperature;BME280_humidity;BME280_pressure;Samples;Min_cycle;Max_cycle;Signal;HPM_P1;HPM_P2
2022/10/29 00:00:34;;;;;;;7.93;2.50;;;16.70;99.90;;;;;;8421099;28;20192;-69
2022/10/29 00:04:35;;;;;;;6.97;2.97;;;16.80;99.90;;;;;;8403317;28;20200;-70
2022/10/29 00:08:37;;;;;;;5.83;2.67;;;17.00;99.90;;;;;;8402124;28;20208;-69
2022/10/29 00:12:38;;;;;;;6.83;2.77;;;17.10;99.90;;;;;;8402797;28;20180;-69
2022/10/29 00:16:39;;;;;;;6.80;2.57;;;17.20;99.90;;;;;;8402412;28;20184;-70
2022/10/29 00:20:39;;;;;;;9.00;2.57;;;17.20;99.90;;;;;;8404058;28;20192;-69
2022/10/29 00:24:40;;;;;;;6.53;2.60;;;17.20;99.90;;;;;;8418407;28;20241;-70
2022/10/29 00:28:41;;;;;;;8.20;2.93;;;17.20;99.90;;;;;;8419006;28;20211;-69
2022/10/29 00:32:42;;;;;;;4.87;2.77;;;17.10;99.90;;;;;;8420626;28;20188;-69
2022/10/29 00:36:43;;;;;;;7.60;2.53;;;17.10;99.90;;;;;;8420846;28;20344;-70
2022/10/29 00:40:43;;;;;;;9.13;3.07;;;17.00;99.90;;;;;;8395387;28;20185;-69
2022/10/29 00:44:44;;;;;;;5.20;2.87;;;17.00;99.90;;;;;;8419288;28;20183;-70
2022/10/29 00:48:48;;;;;;;6.33;3.03;;;17.00;99.90;;;;;;8400455;28;20231;-70
2022/10/29 00:52:50;;;;;;;5.97;3.13;;;17.00;99.90;;;;;;8416050;28;20173;-70
2022/10/29 00:56:56;;;;;;;5.43;2.80;;;17.00;99.90;;;;;;8418543;28;20220;-70
2022/10/29 01:00:58;;;;;;;7.07;2.93;;;17.10;99.90;;;;;;8416701;28;20192;-70
2022/10/29 01:05:00;;;;;;;8.23;3.10;;;17.20;99.90;;;;;;8395963;28;20197;-71
2022/10/29 01:09:01;;;;;;;7.73;3.27;;;17.20;99.90;;;;;;8399633;28;20211;-68
2022/10/29 01:13:33;;;;;;;7.80;3.37;;;17.30;99.90;;;;;;8417339;28;20176;-69
2022/10/29 01:17:43;;;;;;;8.10;3.07;;;17.20;99.90;;;;;;8416769;28;20280;-71
2022/10/29 01:21:52;;;;;;;6.47;3.13;;;17.20;99.90;;;;;;8402344;28;20189;-69
2022/10/29 01:26:27;;;;;;;7.60;3.33;;;17.10;99.90;;;;;;8394902;28;20219;-69
2022/10/29 01:30:49;;;;;;;5.57;3.80;;;17.10;99.90;;;;;;8418103;28;20200;-69
2022/10/29 01:35:22;;;;;;;7.87;3.57;;;17.00;99.90;;;;;;8398970;28;20282;-69
2022/10/29 01:39:30;;;;;;;7.70;3.57;;;16.90;99.90;;;;;;8344985;28;20184;-69
2022/10/29 01:43:52;;;;;;;7.77;3.47;;;16.80;99.90;;;;;;8418791;28;20185;-68
2022/10/29 01:47:58;;;;;;;7.97;3.60;;;16.70;99.90;;;;;;8399548;28;20180;-69
2022/10/29 01:52:02;;;;;;;7.67;3.67;;;16.60;99.90;;;;;;8399772;28;20200;-70
2022/10/29 01:56:03;;;;;;;5.53;3.40;;;16.50;99.90;;;;;;8413484;28;20176;-68
2022/10/29 02:00:13;;;;;;;5.33;3.57;;;16.50;99.90;;;;;;8414622;28;20257;-70
2022/10/29 02:04:40;;;;;;;7.17;3.80;;;16.40;1.00;;;;;;8400975;28;20246;-69
2022/10/29 02:09:22;;;;;;;9.97;4.00;;;16.30;1.00;;;;;;8393786;28;20498;-70
2022/10/29 02:13:30;;;;;;;7.93;3.70;;;16.30;1.00;;;;;;8418808;28;20670;-69
2022/10/29 02:17:32;;;;;;;7.70;3.83;;;16.20;1.00;;;;;;8420354;28;20185;-68
2022/10/29 02:21:33;;;;;;;7.27;3.20;;;16.20;1.00;;;;;;8419091;28;20179;-69
2022/10/29 02:25:34;;;;;;;9.07;4.07;;;16.10;1.00;;;;;;8400761;28;20192;-70
2022/10/29 02:29:34;;;;;;;10.73;4.20;;;16.00;1.00;;;;;;8416660;28;20434;-69
2022/10/29 02:33:36;;;;;;;6.97;3.53;;;16.00;1.00;;;;;;8399850;28;20303;-69
2022/10/29 02:37:36;;;;;;;8.70;3.73;;;16.00;1.00;;;;;;8400073;28;20184;-70
2022/10/29 02:41:37;;;;;;;7.30;3.97;;;16.00;1.00;;;;;;8415000;28;20202;-69
2022/10/29 02:45:38;;;;;;;7.90;3.90;;;15.90;1.00;;;;;;8398608;28;20236;-69
2022/10/29 02:49:39;;;;;;;7.57;3.70;;;15.90;1.00;;;;;;8397938;28;20196;-71
2022/10/29 02:53:40;;;;;;;8.07;3.63;;;15.90;1.00;;;;;;8413540;28;20242;-69
2022/10/29 02:57:44;;;;;;;8.53;4.50;;;15.80;1.00;;;;;;8414722;28;20196;-69
2022/10/29 03:01:45;;;;;;;7.37;4.20;;;15.70;99.90;;;;;;8396150;28;20176;-69
2022/10/29 03:05:46;;;;;;;8.87;3.97;;;15.70;1.00;;;;;;8396913;28;20219;-68
2022/10/29 03:09:46;;;;;;;5.93;3.77;;;15.60;1.00;;;;;;8396278;28;20242;-69
2022/10/29 03:13:47;;;;;;;9.03;4.33;;;15.60;55.70;;;;;;8400434;28;20284;-69
2022/10/29 03:17:48;;;;;;;7.20;4.13;;;15.50;99.90;;;;;;8423404;28;20176;-69
2022/10/29 03:21:49;;;;;;;5.93;4.07;;;15.40;99.90;;;;;;8403804;28;20531;-69
2022/10/29 03:25:53;;;;;;;9.17;4.10;;;15.40;99.90;;;;;;8420657;28;20245;-72
2022/10/29 03:29:54;;;;;;;6.43;4.17;;;15.30;49.20;;;;;;8403320;28;20219;-70
2022/10/29 03:33:55;;;;;;;7.87;4.47;;;15.30;99.90;;;;;;8404287;28;20181;-69
2022/10/29 03:37:55;;;;;;;8.67;4.90;;;15.30;99.90;;;;;;8422764;28;20180;-69
2022/10/29 03:41:56;;;;;;;9.13;4.77;;;15.20;99.90;;;;;;8408205;28;20241;-69
2022/10/29 03:45:57;;;;;;;10.33;4.63;;;15.20;99.90;;;;;;8404480;28;20374;-69
2022/10/29 03:49:58;;;;;;;8.97;4.43;;;15.10;99.90;;;;;;8402180;28;20335;-68
2022/10/29 03:53:58;;;;;;;6.30;3.80;;;15.10;1.00;;;;;;8422424;28;20191;-69
2022/10/29 03:57:59;;;;;;;7.27;4.33;;;15.00;1.00;;;;;;8399213;28;20204;-68
2022/10/29 04:02:00;;;;;;;8.67;4.57;;;15.00;1.00;;;;;;8402654;28;20192;-68
2022/10/29 04:06:08;;;;;;;5.60;4.07;;;15.00;1.00;;;;;;8421297;28;20191;-69
2022/10/29 04:10:09;;;;;;;8.53;4.30;;;15.00;1.00;;;;;;8402726;28;20204;-70
2022/10/29 04:14:10;;;;;;;7.63;4.40;;;15.00;1.00;;;;;;8402623;28;20183;-68
2022/10/29 04:18:11;;;;;;;7.03;4.57;;;15.00;1.00;;;;;;8422525;28;20187;-68
2022/10/29 04:22:12;;;;;;;9.17;4.43;;;15.00;1.00;;;;;;8405391;28;20196;-69
2022/10/29 04:26:13;;;;;;;10.07;4.40;;;14.90;99.90;;;;;;8402484;28;20241;-69
2022/10/29 04:30:13;;;;;;;7.93;4.27;;;14.80;1.00;;;;;;8420829;28;20212;-69
2022/10/29 04:34:14;;;;;;;7.70;4.40;;;14.80;1.00;;;;;;8404709;28;20198;-69
2022/10/29 04:38:15;;;;;;;8.77;5.03;;;14.80;1.00;;;;;;8400592;28;20190;-69
2022/10/29 04:42:16;;;;;;;9.50;4.70;;;15.00;1.00;;;;;;8402907;28;20225;-69
2022/10/29 04:46:16;;;;;;;7.80;4.57;;;15.00;1.00;;;;;;8421680;28;20184;-68
2022/10/29 04:50:17;;;;;;;12.73;5.17;;;15.00;1.00;;;;;;8400540;28;20204;-68
2022/10/29 04:54:18;;;;;;;7.87;5.10;;;15.00;1.00;;;;;;8419489;28;20187;-68
2022/10/29 04:58:19;;;;;;;10.30;5.10;;;15.00;1.00;;;;;;8402415;28;20192;-68
2022/10/29 05:02:20;;;;;;;9.67;4.63;;;15.00;1.00;;;;;;8414869;28;20198;-69
2022/10/29 05:06:21;;;;;;;9.60;4.63;;;15.00;1.00;;;;;;8418789;28;20180;-68
2022/10/29 05:10:21;;;;;;;12.03;4.87;;;14.90;1.00;;;;;;8399950;28;20231;-70
2022/10/29 05:14:22;;;;;;;11.43;5.03;;;14.80;99.90;;;;;;8403183;28;20195;-69
2022/10/29 05:18:23;;;;;;;8.73;4.83;;;14.70;99.90;;;;;;8420550;28;20185;-70
2022/10/29 05:22:24;;;;;;;10.13;4.53;;;14.70;97.20;;;;;;8401997;28;20181;-72
2022/10/29 05:26:25;;;;;;;5.53;4.37;;;14.70;99.90;;;;;;8401836;28;20184;-69
2022/10/29 05:30:25;;;;;;;9.27;4.50;;;14.60;99.90;;;;;;8402906;28;20204;-69
2022/10/29 05:34:26;;;;;;;9.23;5.40;;;14.50;1.00;;;;;;8422016;28;20204;-68
2022/10/29 05:38:27;;;;;;;8.77;4.83;;;14.50;99.90;;;;;;8400918;28;20173;-69
2022/10/29 05:42:28;;;;;;;8.60;5.10;;;14.50;99.90;;;;;;8403378;28;20262;-70
2022/10/29 05:46:29;;;;;;;11.90;5.63;;;14.40;1.00;;;;;;8419733;28;20180;-69
2022/10/29 05:50:31;;;;;;;10.20;4.73;;;14.40;99.90;;;;;;8400407;28;20204;-69
2022/10/29 05:54:32;;;;;;;9.17;5.27;;;14.30;1.00;;;;;;8399974;28;20219;-69
2022/10/29 05:58:32;;;;;;;10.77;5.17;;;14.30;99.90;;;;;;8394117;28;20235;-69
2022/10/29 06:02:33;;;;;;;8.20;4.57;;;14.30;99.90;;;;;;8396056;28;20181;-70
2022/10/29 06:06:34;;;;;;;10.43;5.50;;;14.30;99.90;;;;;;8397217;28;20171;-70
2022/10/29 06:10:35;;;;;;;6.50;4.43;;;14.30;1.00;;;;;;8418048;28;20214;-70
2022/10/29 06:14:36;;;;;;;6.40;4.27;;;14.30;1.00;;;;;;8416779;28;20183;-70
2022/10/29 06:18:36;;;;;;;13.33;5.17;;;14.30;99.90;;;;;;8400182;28;20439;-70
2022/10/29 06:22:37;;;;;;;8.80;5.33;;;14.40;30.50;;;;;;8399162;28;20184;-70
2022/10/29 06:26:39;;;;;;;11.60;5.70;;;14.50;1.00;;;;;;8418942;28;20181;-70
2022/10/29 06:30:44;;;;;;;8.00;4.73;;;14.50;1.00;;;;;;8399245;28;20213;-70
2022/10/29 06:34:45;;;;;;;7.47;4.90;;;14.60;99.90;;;;;;8417952;28;20349;-71
2022/10/29 06:38:46;;;;;;;6.73;4.83;;;14.60;99.90;;;;;;8400368;28;20206;-70
2022/10/29 06:42:47;;;;;;;8.37;5.00;;;14.60;99.90;;;;;;8418815;28;20180;-71
2022/10/29 06:46:47;;;;;;;9.63;5.03;;;14.70;99.90;;;;;;8419026;28;20177;-71
2022/10/29 06:50:49;;;;;;;8.27;4.97;;;14.60;99.90;;;;;;8397228;28;20498;-71
2022/10/29 06:54:50;;;;;;;10.00;5.37;;;14.50;1.00;;;;;;8399166;28;20243;-71
2022/10/29 06:58:50;;;;;;;10.03;5.43;;;14.50;99.90;;;;;;8399165;28;20227;-67
2022/10/29 07:02:51;;;;;;;9.87;5.37;;;14.50;1.00;;;;;;8415491;28;20508;-70
2022/10/29 07:06:52;;;;;;;8.53;5.70;;;14.50;99.90;;;;;;8403654;28;20208;-70
2022/10/29 07:10:54;;;;;;;9.90;4.90;;;14.60;99.90;;;;;;8399002;28;20204;-70
2022/10/29 07:14:54;;;;;;;8.60;5.27;;;14.60;99.90;;;;;;8417581;28;20180;-70
2022/10/29 07:18:56;;;;;;;10.77;5.43;;;14.70;35.50;;;;;;8399071;28;20184;-69
2022/10/29 07:22:58;;;;;;;10.73;5.23;;;14.80;99.90;;;;;;8396617;28;20283;-69
2022/10/29 07:27:00;;;;;;;8.57;5.03;;;14.80;99.90;;;;;;8416325;28;20187;-70
2022/10/29 07:31:01;;;;;;;10.03;5.90;;;14.80;99.90;;;;;;8415909;28;20215;-70
2022/10/29 07:35:02;;;;;;;8.73;5.43;;;14.80;1.00;;;;;;8398731;28;20211;-71
2022/10/29 07:39:03;;;;;;;13.03;5.77;;;14.90;56.70;;;;;;8415825;28;20184;-70
2022/10/29 07:43:04;;;;;;;12.33;5.13;;;15.00;99.90;;;;;;8394890;28;20264;-70
2022/10/29 07:47:05;;;;;;;11.53;6.10;;;15.10;99.90;;;;;;8412047;28;20180;-70
2022/10/29 07:51:06;;;;;;;9.93;6.03;;;15.30;99.90;;;;;;8413359;28;20219;-71
2022/10/29 07:55:07;;;;;;;12.23;5.87;;;15.60;99.90;;;;;;8394539;28;20272;-70
2022/10/29 07:59:08;;;;;;;7.40;5.30;;;15.70;99.90;;;;;;8393992;28;20268;-70
2022/10/29 08:03:11;;;;;;;7.90;5.30;;;15.80;45.60;;;;;;8398130;28;20247;-70
2022/10/29 08:07:12;;;;;;;10.47;5.33;;;16.00;1.00;;;;;;8417221;28;20176;-70
2022/10/29 08:11:12;;;;;;;9.20;5.60;;;16.10;1.00;;;;;;8417757;28;20204;-70
2022/10/29 08:15:13;;;;;;;9.03;5.50;;;16.30;1.00;;;;;;8418539;28;20216;-70
2022/10/29 08:19:14;;;;;;;9.27;5.17;;;16.50;22.40;;;;;;8399335;28;20208;-70
2022/10/29 08:23:15;;;;;;;9.33;4.97;;;16.80;1.00;;;;;;8417725;28;20183;-70
2022/10/29 08:27:16;;;;;;;9.43;5.20;;;17.00;1.00;;;;;;8398689;28;20180;-70
2022/10/29 08:31:18;;;;;;;10.67;5.20;;;17.20;99.90;;;;;;8418744;28;20225;-69
2022/10/29 08:35:18;;;;;;;7.03;4.63;;;17.30;99.90;;;;;;8399644;28;20177;-68
2022/10/29 08:39:19;;;;;;;12.57;5.67;;;17.50;99.90;;;;;;8417272;28;20183;-67
2022/10/29 08:43:49;;;;;;;10.63;5.00;;;17.70;99.90;;;;;;8418134;28;20271;-69
2022/10/29 08:48:02;;;;;;;9.70;4.67;;;18.00;99.90;;;;;;8397703;28;20183;-68
2022/10/29 08:52:15;;;;;;;8.33;4.57;;;18.20;99.90;;;;;;8393298;28;20209;-68
2022/10/29 08:56:27;;;;;;;10.10;4.80;;;18.40;99.90;;;;;;8416723;28;20177;-69
2022/10/29 09:00:36;;;;;;;6.67;4.87;;;18.60;99.90;;;;;;8392046;28;20172;-68
2022/10/29 09:04:37;;;;;;;9.00;4.43;;;18.70;99.90;;;;;;8395648;28;20208;-68
2022/10/29 09:09:05;;;;;;;7.83;4.30;;;18.90;99.90;;;;;;8397101;28;20208;-68
2022/10/29 09:13:31;;;;;;;8.47;4.60;;;19.00;99.90;;;;;;8397389;28;20207;-68
2022/10/29 09:17:55;;;;;;;12.30;5.57;;;19.10;99.90;;;;;;8400812;28;20177;-68
2022/10/29 09:22:02;;;;;;;11.03;4.73;;;19.20;99.90;;;;;;8413379;28;20184;-69
2022/10/29 09:26:30;;;;;;;9.00;5.10;;;19.30;99.90;;;;;;8403090;28;20191;-69
2022/10/29 09:30:44;;;;;;;6.27;4.00;;;19.40;99.90;;;;;;8394351;28;20204;-69
2022/10/29 09:35:01;;;;;;;9.00;4.10;;;19.60;99.90;;;;;;8414168;28;20203;-68
2022/10/29 09:39:11;;;;;;;10.07;4.60;;;19.60;99.90;;;;;;8415340;28;20173;-67
2022/10/29 09:43:42;;;;;;;8.93;4.87;;;19.80;99.90;;;;;;8415513;28;20189;-69
2022/10/29 09:48:28;;;;;;;7.43;3.80;;;19.70;99.90;;;;;;8394240;28;21626;-68
2022/10/29 09:52:34;;;;;;;7.90;3.60;;;19.70;99.90;;;;;;8408025;28;20252;-69
2022/10/29 09:56:37;;;;;;;9.03;4.60;;;19.90;99.90;;;;;;8391924;28;20206;-68
2022/10/29 10:00:37;;;;;;;7.97;4.30;;;20.10;99.90;;;;;;8394310;28;20181;-68
2022/10/29 10:04:44;;;;;;;11.93;4.50;;;20.00;99.90;;;;;;8389385;28;20203;-68
2022/10/29 10:09:03;;;;;;;10.93;4.37;;;20.10;99.90;;;;;;8393971;28;20185;-68
2022/10/29 10:13:05;;;;;;;8.33;3.87;;;20.30;99.90;;;;;;8394812;28;20185;-68
2022/10/29 10:17:08;;;;;;;9.40;4.77;;;20.40;87.70;;;;;;8414241;28;20263;-68
2022/10/29 10:21:32;;;;;;;9.60;4.27;;;20.40;99.90;;;;;;8394528;28;20181;-68
2022/10/29 10:25:38;;;;;;;5.53;4.13;;;20.60;99.90;;;;;;8395090;28;20225;-67
2022/10/29 10:29:39;;;;;;;8.37;4.37;;;20.70;99.90;;;;;;8395626;28;20208;-68
2022/10/29 10:33:52;;;;;;;12.93;4.57;;;20.80;99.90;;;;;;8413414;28;20191;-69
2022/10/29 10:37:53;;;;;;;10.33;4.87;;;20.70;99.90;;;;;;8410849;28;20172;-68
2022/10/29 10:41:56;;;;;;;10.67;4.90;;;20.50;99.90;;;;;;8411958;28;20212;-68
2022/10/29 10:46:02;;;;;;;8.50;5.17;;;20.50;99.90;;;;;;8397039;28;20212;-68
2022/10/29 10:50:15;;;;;;;7.13;4.33;;;20.50;99.90;;;;;;8410251;28;20403;-69
2022/10/29 10:54:43;;;;;;;11.00;4.70;;;20.80;99.90;;;;;;8412897;28;20333;-70
2022/10/29 10:58:53;;;;;;;10.40;4.53;;;20.90;99.90;;;;;;8409693;28;20200;-68
2022/10/29 11:03:00;;;;;;;9.57;4.93;;;20.90;78.30;;;;;;8415317;28;20258;-70
2022/10/29 11:07:10;;;;;;;6.37;5.03;;;21.00;79.30;;;;;;8409798;28;20180;-67
2022/10/29 11:11:36;;;;;;;10.40;5.87;;;21.00;99.90;;;;;;8397776;28;20208;-67
2022/10/29 11:15:46;;;;;;;8.13;4.50;;;20.70;99.90;;;;;;8399909;28;20183;-68
2022/10/29 11:19:51;;;;;;;12.27;5.60;;;20.80;99.90;;;;;;8416382;28;20255;-68
2022/10/29 11:24:08;;;;;;;17.67;4.97;;;21.20;99.90;;;;;;8393555;28;20230;-67
2022/10/29 11:28:33;;;;;;;13.67;5.37;;;21.10;99.90;;;;;;8415067;28;20558;-68
2022/10/29 11:32:34;;;;;;;11.27;5.23;;;20.90;99.90;;;;;;8397512;28;20311;-68
2022/10/29 11:36:42;;;;;;;8.43;4.13;;;20.50;99.90;;;;;;8402588;28;20184;-68
2022/10/29 11:40:57;;;;;;;9.47;4.20;;;20.50;99.90;;;;;;8403000;28;20238;-67
2022/10/29 11:44:58;;;;;;;10.40;4.50;;;20.60;99.90;;;;;;8418720;28;20192;-69
2022/10/29 11:49:23;;;;;;;9.03;4.00;;;20.80;99.90;;;;;;8422384;28;20204;-68
2022/10/29 11:53:45;;;;;;;9.17;3.80;;;20.80;99.90;;;;;;8420508;28;20185;-69
2022/10/29 11:57:49;;;;;;;11.10;3.87;;;20.80;99.90;;;;;;8407046;28;20199;-67
2022/10/29 12:02:09;;;;;;;11.97;5.00;;;20.90;99.90;;;;;;8418921;28;20207;-68
2022/10/29 12:06:21;;;;;;;10.17;4.03;;;20.80;61.10;;;;;;8401126;28;20192;-68
2022/10/29 12:11:02;;;;;;;8.47;4.37;;;20.70;99.90;;;;;;8418826;28;20204;-68
2022/10/29 12:15:16;;;;;;;6.53;3.90;;;20.70;48.60;;;;;;8382821;28;20192;-68
2022/10/29 12:19:51;;;;;;;12.87;4.70;;;20.80;72.20;;;;;;8420320;28;20212;-68
2022/10/29 12:24:04;;;;;;;8.67;4.90;;;20.80;99.90;;;;;;8417966;28;20185;-68
2022/10/29 12:28:33;;;;;;;12.37;4.80;;;20.70;99.90;;;;;;8401374;28;20192;-68
2022/10/29 12:32:57;;;;;;;9.20;4.07;;;20.90;99.90;;;;;;8417443;28;20256;-68
2022/10/29 12:37:21;;;;;;;9.47;4.00;;;21.00;99.10;;;;;;8420508;28;20286;-68
2022/10/29 12:41:33;;;;;;;11.37;4.10;;;21.00;99.90;;;;;;8403897;28;20271;-68
2022/10/29 12:45:51;;;;;;;9.87;4.33;;;21.00;99.90;;;;;;8420264;28;20189;-68
2022/10/29 12:49:54;;;;;;;9.30;4.40;;;20.90;99.90;;;;;;8419057;28;20211;-68
2022/10/29 12:54:13;;;;;;;7.43;3.97;;;20.70;97.60;;;;;;8401902;28;20188;-68
2022/10/29 12:58:51;;;;;;;4.87;3.43;;;20.50;99.90;;;;;;8415078;28;20208;-68
2022/10/29 13:02:53;;;;;;;8.30;4.13;;;20.60;99.90;;;;;;8399524;28;20189;-68
2022/10/29 13:06:58;;;;;;;7.63;3.73;;;20.60;99.90;;;;;;8417426;28;20230;-68
2022/10/29 13:10:59;;;;;;;6.60;3.70;;;20.70;99.90;;;;;;8399098;28;20196;-69
2022/10/29 13:15:08;;;;;;;8.27;3.83;;;20.70;99.90;;;;;;8419739;28;20173;-69
2022/10/29 13:19:24;;;;;;;7.17;3.60;;;20.70;99.90;;;;;;8418120;28;20283;-68
2022/10/29 13:23:26;;;;;;;6.30;3.57;;;20.80;99.90;;;;;;8402719;28;20238;-67
2022/10/29 13:27:27;;;;;;;16.40;4.73;;;20.80;99.90;;;;;;8397811;28;20172;-68
2022/10/29 13:31:27;;;;;;;11.53;4.50;;;20.80;99.90;;;;;;8415988;28;20287;-67
2022/10/29 13:35:28;;;;;;;8.33;4.20;;;20.60;99.90;;;;;;8398047;28;20180;-68
2022/10/29 13:39:29;;;;;;;15.23;4.90;;;20.70;99.90;;;;;;8412631;28;20231;-68
2022/10/29 13:43:31;;;;;;;5.67;3.80;;;20.60;88.60;;;;;;8398995;28;20181;-68
2022/10/29 13:47:34;;;;;;;15.47;4.57;;;20.70;99.90;;;;;;8418822;28;20184;-67
2022/10/29 13:51:44;;;;;;;11.23;4.67;;;20.70;99.90;;;;;;8396746;28;20231;-68
2022/10/29 13:55:46;;;;;;;10.90;4.50;;;20.60;99.90;;;;;;8418585;28;20485;-70
2022/10/29 13:59:56;;;;;;;11.43;5.03;;;20.60;99.90;;;;;;8396175;28;20197;-67
2022/10/29 14:04:05;;;;;;;13.90;5.10;;;20.60;99.90;;;;;;8417803;28;20200;-67
2022/10/29 14:08:25;;;;;;;16.63;5.20;;;20.50;99.90;;;;;;8418235;28;20272;-67
2022/10/29 14:12:29;;;;;;;9.67;4.77;;;20.50;99.90;;;;;;8392472;28;20201;-68
2022/10/29 14:16:32;;;;;;;11.50;5.57;;;20.50;25.10;;;;;;8414857;28;20727;-67
2022/10/29 14:20:33;;;;;;;10.43;4.87;;;20.30;99.90;;;;;;8396396;28;20273;-67
2022/10/29 14:24:38;;;;;;;16.23;5.43;;;20.20;99.90;;;;;;8399122;28;20185;-67
2022/10/29 14:28:38;;;;;;;8.60;4.83;;;20.20;99.90;;;;;;8396239;28;20188;-68
2022/10/29 14:32:39;;;;;;;11.00;4.70;;;20.10;99.90;;;;;;8416733;28;20214;-67
2022/10/29 14:36:46;;;;;;;13.37;5.27;;;19.90;99.90;;;;;;8397705;28;20180;-68
2022/10/29 14:40:47;;;;;;;8.67;4.60;;;19.80;99.90;;;;;;8419135;28;20248;-68
2022/10/29 14:44:52;;;;;;;7.03;4.03;;;19.70;99.90;;;;;;8415865;28;20181;-70
2022/10/29 14:49:14;;;;;;;6.43;3.97;;;19.50;99.90;;;;;;8398701;28;20181;-70
2022/10/29 14:53:30;;;;;;;6.33;3.53;;;19.20;99.90;;;;;;8416951;28;20184;-69
2022/10/29 14:57:34;;;;;;;8.20;4.17;;;19.00;99.90;;;;;;8413173;28;20193;-70
2022/10/29 15:01:48;;;;;;;7.80;4.20;;;18.80;21.40;;;;;;8408907;28;20187;-70
2022/10/29 15:05:50;;;;;;;5.67;3.90;;;18.50;99.90;;;;;;8395454;28;20250;-69
2022/10/29 15:10:14;;;;;;;4.97;3.77;;;18.30;99.90;;;;;;8400881;28;20220;-70
2022/10/29 15:14:37;;;;;;;7.03;4.17;;;18.00;99.90;;;;;;8393846;28;20190;-70
2022/10/29 15:18:38;;;;;;;10.77;4.43;;;17.70;1.00;;;;;;8394552;28;20179;-70
2022/10/29 15:22:42;;;;;;;8.50;4.40;;;17.60;30.80;;;;;;8413585;28;20223;-70
2022/10/29 15:26:56;;;;;;;6.90;4.67;;;17.60;1.00;;;;;;8387438;28;20730;-70
2022/10/29 15:31:01;;;;;;;5.50;4.30;;;17.50;1.00;;;;;;8408719;28;20226;-71
2022/10/29 15:35:08;;;;;;;6.90;4.53;;;17.50;1.00;;;;;;8391635;28;20321;-70
2022/10/29 15:39:25;;;;;;;6.53;4.67;;;17.40;99.90;;;;;;8393698;28;20506;-70
2022/10/29 15:43:28;;;;;;;11.63;6.13;;;17.30;99.90;;;;;;8392382;28;20180;-70
2022/10/29 15:47:29;;;;;;;9.90;5.07;;;17.20;1.00;;;;;;8394991;28;20177;-70
2022/10/29 15:51:30;;;;;;;6.07;4.53;;;17.10;99.90;;;;;;8409162;28;20283;-71
2022/10/29 15:55:36;;;;;;;5.80;4.03;;;17.10;99.90;;;;;;8394737;28;20301;-71
2022/10/29 15:59:38;;;;;;;6.43;4.87;;;17.00;99.90;;;;;;8389683;28;20232;-72
2022/10/29 16:03:39;;;;;;;11.37;5.07;;;16.90;99.90;;;;;;8388843;28;20200;-70
2022/10/29 16:07:42;;;;;;;8.00;5.10;;;16.90;99.90;;;;;;8392452;28;20215;-69
2022/10/29 16:11:43;;;;;;;9.70;6.20;;;16.80;99.90;;;;;;8410428;28;20399;-71
2022/10/29 16:15:44;;;;;;;9.90;5.73;;;16.70;99.90;;;;;;8386734;28;20179;-70
2022/10/29 16:19:45;;;;;;;10.63;6.10;;;16.70;99.90;;;;;;8393964;28;20275;-69
2022/10/29 16:23:47;;;;;;;12.50;6.63;;;16.60;99.90;;;;;;8397819;28;20192;-69
2022/10/29 16:27:48;;;;;;;11.73;6.07;;;16.50;1.00;;;;;;8399063;28;20271;-70
2022/10/29 16:31:49;;;;;;;9.83;6.23;;;16.50;1.00;;;;;;8400948;28;20208;-70
2022/10/29 16:35:50;;;;;;;10.83;6.73;;;16.30;7.30;;;;;;8400229;28;20188;-70
2022/10/29 16:39:51;;;;;;;12.20;6.20;;;16.30;1.00;;;;;;8420902;28;20177;-70
2022/10/29 16:43:52;;;;;;;8.43;6.47;;;16.20;1.00;;;;;;8418657;28;20546;-70
2022/10/29 16:47:53;;;;;;;7.97;5.43;;;16.20;99.90;;;;;;8402873;28;20304;-70
2022/10/29 16:51:54;;;;;;;8.87;6.07;;;16.20;99.90;;;;;;8420185;28;20208;-70
2022/10/29 16:55:58;;;;;;;7.63;5.30;;;16.10;1.00;;;;;;8418804;28;20186;-69
2022/10/29 17:00:00;;;;;;;10.07;5.73;;;16.00;1.00;;;;;;8417914;28;20398;-70
2022/10/29 17:04:00;;;;;;;12.73;6.50;;;15.90;64.40;;;;;;8420404;28;20196;-69
2022/10/29 17:08:01;;;;;;;8.10;6.13;;;15.90;99.90;;;;;;8398742;28;20191;-70
2022/10/29 17:12:02;;;;;;;8.83;6.27;;;15.90;80.50;;;;;;8418263;28;20340;-70
2022/10/29 17:16:13;;;;;;;8.03;5.40;;;15.80;1.00;;;;;;8400145;28;20185;-70
2022/10/29 17:20:14;;;;;;;9.10;6.47;;;15.80;1.00;;;;;;8419038;28;20314;-73
2022/10/29 17:24:15;;;;;;;12.03;6.23;;;15.70;1.00;;;;;;8417532;28;20255;-70
2022/10/29 17:28:16;;;;;;;8.87;7.17;;;15.60;99.90;;;;;;8399724;28;20179;-70
2022/10/29 17:32:17;;;;;;;11.33;7.80;;;15.60;99.90;;;;;;8397555;28;20215;-70
2022/10/29 17:36:18;;;;;;;10.93;8.30;;;15.60;1.00;;;;;;8415157;28;20176;-69
2022/10/29 17:40:19;;;;;;;14.37;9.10;;;15.70;1.00;;;;;;8397108;28;20187;-70
2022/10/29 17:44:20;;;;;;;12.87;9.00;;;15.70;99.90;;;;;;8399654;28;20224;-70
2022/10/29 17:48:21;;;;;;;13.87;9.53;;;15.60;99.90;;;;;;8416899;28;20234;-69
2022/10/29 17:52:21;;;;;;;14.43;9.47;;;15.60;99.90;;;;;;8417165;28;20338;-70
2022/10/29 17:56:22;;;;;;;19.17;10.13;;;15.60;99.90;;;;;;8396977;28;20354;-70
2022/10/29 18:00:24;;;;;;;15.60;9.00;;;15.50;99.90;;;;;;8398149;28;20229;-70
2022/10/29 18:04:25;;;;;;;15.17;8.93;;;15.40;99.90;;;;;;8411853;28;20321;-69
2022/10/29 18:08:26;;;;;;;17.13;10.20;;;15.30;99.90;;;;;;8399132;28;20185;-70
2022/10/29 18:12:27;;;;;;;15.03;9.47;;;15.20;99.90;;;;;;8398486;28;20258;-70
2022/10/29 18:16:31;;;;;;;12.33;9.83;;;15.20;99.90;;;;;;8415014;28;20275;-69
2022/10/29 18:20:32;;;;;;;12.53;9.07;;;15.20;1.00;;;;;;8417017;28;20176;-70
2022/10/29 18:24:33;;;;;;;14.03;9.87;;;15.20;99.90;;;;;;8397126;28;20204;-69
2022/10/29 18:28:35;;;;;;;15.33;9.63;;;15.20;1.00;;;;;;8396965;28;20172;-70
2022/10/29 18:32:36;;;;;;;12.90;9.87;;;15.20;1.00;;;;;;8394752;28;20208;-69
2022/10/29 18:36:40;;;;;;;18.27;11.50;;;15.20;99.90;;;;;;8415271;28;20176;-69
2022/10/29 18:40:41;;;;;;;18.80;13.30;;;15.20;1.00;;;;;;8398098;28;20191;-69
2022/10/29 18:44:42;;;;;;;17.93;11.87;;;15.20;99.90;;;;;;8394197;28;20473;-71
2022/10/29 18:48:45;;;;;;;21.60;11.80;;;15.30;1.00;;;;;;8396386;28;20207;-69
2022/10/29 18:52:46;;;;;;;16.27;11.13;;;15.20;99.90;;;;;;8396008;28;20212;-70
2022/10/29 18:56:47;;;;;;;19.53;12.00;;;15.10;99.90;;;;;;8414007;28;20202;-70
2022/10/29 19:00:48;;;;;;;17.40;11.73;;;15.00;99.90;;;;;;8395509;28;20180;-70
2022/10/29 19:04:49;;;;;;;22.70;12.37;;;14.80;1.00;;;;;;8395037;28;20220;-70
2022/10/29 19:08:51;;;;;;;19.20;12.87;;;14.80;7.60;;;;;;8393861;28;20184;-69
2022/10/29 19:12:52;;;;;;;21.80;12.83;;;14.80;34.80;;;;;;8395497;28;20211;-69
2022/10/29 19:16:52;;;;;;;20.67;13.53;;;14.80;99.90;;;;;;8412009;28;20192;-71
2022/10/29 19:20:53;;;;;;;19.63;11.87;;;14.80;1.00;;;;;;8411235;28;20184;-69
2022/10/29 19:24:54;;;;;;;17.40;12.47;;;14.80;1.00;;;;;;8391564;28;20221;-70
2022/10/29 19:28:57;;;;;;;19.93;12.90;;;14.80;1.00;;;;;;8389621;28;20204;-70
2022/10/29 19:32:58;;;;;;;18.67;12.07;;;14.90;1.00;;;;;;8395346;28;20243;-70
2022/10/29 19:36:59;;;;;;;18.63;12.43;;;14.90;99.90;;;;;;8400511;28;20176;-70
2022/10/29 19:41:00;;;;;;;19.80;12.30;;;14.90;99.90;;;;;;8395810;28;20188;-70
2022/10/29 19:45:01;;;;;;;19.87;12.10;;;14.90;99.90;;;;;;8414841;28;20184;-70
2022/10/29 19:49:02;;;;;;;18.63;11.93;;;14.90;99.90;;;;;;8392029;28;20184;-70
2022/10/29 19:53:04;;;;;;;19.67;12.10;;;14.90;99.90;;;;;;8394476;28;20276;-70
2022/10/29 19:57:05;;;;;;;20.03;12.47;;;14.90;99.90;;;;;;8398881;28;20276;-70
2022/10/29 20:01:09;;;;;;;16.33;11.80;;;15.00;99.90;;;;;;8418139;28;20189;-70
2022/10/29 20:05:10;;;;;;;24.87;13.30;;;15.00;99.90;;;;;;8416810;28;20574;-70
2022/10/29 20:09:11;;;;;;;19.30;12.60;;;15.10;99.90;;;;;;8418169;28;20219;-70
2022/10/29 20:13:12;;;;;;;17.67;11.77;;;15.10;78.50;;;;;;8403449;28;20169;-70
2022/10/29 20:17:13;;;;;;;21.13;12.17;;;15.10;99.90;;;;;;8419516;28;20184;-70
2022/10/29 20:21:14;;;;;;;15.03;11.53;;;15.10;99.90;;;;;;8419752;28;20187;-71
2022/10/29 20:25:15;;;;;;;17.30;11.10;;;15.10;99.90;;;;;;8402112;28;20185;-70
2022/10/29 20:29:16;;;;;;;16.27;10.60;;;15.20;24.30;;;;;;8402284;28;20275;-70
2022/10/29 20:33:17;;;;;;;18.00;10.90;;;15.10;39.20;;;;;;8419637;28;20176;-70
2022/10/29 20:37:18;;;;;;;20.80;11.17;;;15.10;99.90;;;;;;8400863;28;20184;-69
2022/10/29 20:41:20;;;;;;;17.80;11.00;;;15.10;93.80;;;;;;8401960;28;20433;-69
2022/10/29 20:45:21;;;;;;;17.80;11.57;;;15.10;99.90;;;;;;8399878;28;20179;-70
2022/10/29 20:49:21;;;;;;;19.27;10.37;;;15.00;99.90;;;;;;8399781;28;20180;-69
2022/10/29 20:53:22;;;;;;;19.33;11.57;;;14.90;99.90;;;;;;8420496;28;20177;-69
2022/10/29 20:57:23;;;;;;;17.60;10.37;;;14.90;99.90;;;;;;8418891;28;20201;-70
2022/10/29 21:01:24;;;;;;;18.43;11.13;;;14.90;99.90;;;;;;8391882;28;20176;-69
2022/10/29 21:05:25;;;;;;;17.47;10.90;;;14.80;99.90;;;;;;8399595;28;20358;-70
2022/10/29 21:09:26;;;;;;;19.83;11.67;;;14.70;99.90;;;;;;8399893;28;20354;-70